Maple Ridge, Canada
Current Conditions -  °F | °C
As of 8:31 AM on Saturday 22 Nov 2014 (Local Time) from CYXX Reporting Station
Broken Clouds Broken Clouds  
Wind Chill:   Ceiling: 3000
Heat Index:   Visibility: 20mi
Dew Point:   Wind: 3mph
Humidity: 93%   Direction: 210°SSW
Pressure: 29.68"   Gusts: NA
Location:  49.22°N, 122.6°W
Report Text: CYXX 221631Z 21003KT 20SM FEW010 BKN030 BKN080 06/05 A2968 RMK SF1SC4AC2 SLP052
Loading
Personal Weather Stations






























Interactive Weather Map New forecast layout! Learn more

10-Day Weather Forecast

Advertisements
Track Severe Weather on mobile